Главная страница
METAR-TAF:

METAR-TAF

Аэропорты :

Морони, Коморские острова

широта: 11-32S, долгота: 043-16E, высота над уровнем моря: 29 м

METAR: отсутствует

Время: 00:23 (21:23 UTC)

Прогноз

Эта сводка был подготовлена 4 часа и 23 минут назад, в 17:00 UTC
Прогноз действительный с 04-го 18 UTC до 05-го 24 UTC
Ветер 5 Узел от восточный
Видимость 10 км и более
небольшая облачность на высоте 2000 фута
Отдельные облака на высоте 3000 фута
изменения
С 05-го 05 UTC до 05-го 07 UTC
Ветер 12 Узел от северный
Вероятность 30% :
временами
С 05-го 09 UTC до 05-го 15 UTC
Видимость: 4000 м
Отдельные облака на высоте 2000 фута, Кучево-дождевые.
Рассеянная облачность на высоте 3000 фута
изменения
С 05-го 15 UTC до 05-го 17 UTC
Ветер 5 Узел от восточный

TAF: FMCH 041700Z 0418/0524 09005KT 9999 FEW020 SCT030 BECMG 0505/0507 35012KT PROB30 TEMPO 0509/0515 4000 TSSHRA SCT020CB BKN030 BECMG 0515/0517 10005KT

Метеонаблюдения и прогнозы для более 4000 аэропортов (сводки METAR и TAF).

Имеющиеся станции представлены на карте желтыми и красными точками.

Чтобы увидеть название станции, наведите на нее мышь.

Затем щелкните, чтобы увидеть метеонаблюдения и метеопрогнозы.

Управление картой: чтобы увеличить масштаб, щелкните зеленые кнопки с черным крестиком; чтобы уменьшить масштаб, щелкните зеленую кнопку с тире; для просмотра соседних карт щелкайте зеленые стрелки.


METAR-TAF: